createdAt,value
2023-04-08T06:06:23.827Z,41.90
2023-04-08T06:08:50.876Z,40.67
2023-04-08T06:11:17.968Z,39.75
2023-04-08T06:13:44.875Z,36.70
2023-04-08T06:16:20.355Z,40.88
2023-04-08T17:34:52.725Z,19.50
2023-04-08T18:04:19.663Z,24.23
2023-04-08T18:06:46.776Z,21.17
2023-04-08T18:09:13.715Z,17.85
2023-04-08T18:11:40.858Z,22.88
2023-04-08T18:14:08.514Z,23.02
2023-04-08T18:16:35.593Z,22.48
2023-04-08T18:19:02.498Z,25.52
2023-04-08T18:21:29.421Z,22.95
2023-04-08T18:23:56.337Z,23.88
2023-04-08T18:26:23.303Z,25.02
2023-04-08T18:28:50.310Z,26.95
2023-04-08T18:31:17.212Z,22.58
2023-04-08T18:33:44.161Z,29.80
2023-04-08T18:36:12.770Z,40.28
2023-04-08T18:38:40.993Z,29.55
2023-04-08T18:41:08.529Z,27.95
2023-04-08T18:43:35.671Z,24.00
2023-04-08T18:46:02.730Z,27.92
2023-04-08T18:48:30.044Z,23.92
2023-04-08T18:50:57.627Z,24.98
2023-04-08T18:53:24.565Z,26.33
2023-04-08T18:55:51.748Z,23.15
2023-04-08T18:58:18.766Z,25.70
2023-04-08T19:00:45.893Z,25.17
2023-04-08T19:03:12.920Z,23.88
2023-04-08T19:05:39.958Z,25.17
2023-04-08T19:08:06.932Z,22.30
2023-04-08T19:10:34.772Z,24.05
2023-04-08T19:13:02.294Z,24.15
2023-04-08T19:15:29.716Z,22.67
2023-04-08T19:17:57.005Z,27.15
2023-04-08T19:20:24.247Z,21.65
2023-04-08T19:22:51.167Z,25.15
2023-04-08T19:25:18.398Z,25.33
2023-04-08T19:27:48.043Z,25.55
2023-04-08T19:30:15.036Z,26.98
2023-04-08T19:32:43.213Z,26.05
2023-04-08T19:35:13.421Z,25.23
2023-04-08T19:37:40.911Z,23.65
2023-04-08T19:40:08.985Z,22.38
2023-04-08T19:42:36.518Z,22.65
2023-04-08T19:45:05.246Z,21.77
2023-04-08T19:47:33.120Z,24.42
2023-04-08T19:50:00.409Z,20.63
2023-04-08T19:52:27.597Z,23.08
2023-04-08T19:54:54.539Z,22.70
2023-04-08T19:57:21.657Z,21.05
2023-04-08T19:59:48.952Z,21.33
2023-04-08T20:02:16.395Z,21.35
2023-04-08T20:04:44.931Z,22.00
2023-04-08T20:07:12.896Z,24.58
2023-04-08T20:09:39.994Z,23.52
2023-04-08T20:12:07.375Z,21.20
2023-04-08T20:14:36.531Z,23.00
2023-04-08T20:17:04.522Z,23.75
2023-04-08T20:19:31.469Z,23.90
2023-04-08T20:21:58.532Z,26.77
2023-04-08T20:24:25.643Z,20.55
2023-04-08T20:26:52.671Z,24.08
2023-04-08T20:29:19.682Z,20.60
2023-04-08T20:31:47.122Z,19.23
2023-04-08T20:34:14.410Z,18.40
2023-04-08T20:36:41.343Z,18.25
2023-04-08T20:39:11.860Z,20.20
2023-04-08T20:41:39.224Z,21.77
2023-04-08T20:44:07.122Z,22.02
2023-04-08T20:46:35.210Z,20.25
2023-04-08T20:49:03.805Z,24.65
2023-04-08T20:51:33.690Z,21.02
2023-04-08T20:54:00.846Z,23.77
2023-04-08T20:56:27.928Z,21.38
2023-04-08T20:58:56.390Z,17.83
2023-04-08T21:01:24.688Z,20.73
2023-04-08T21:03:52.022Z,20.08
2023-04-08T21:06:20.308Z,24.95
2023-04-08T21:08:48.728Z,19.25
2023-04-08T21:11:16.087Z,20.65
2023-04-08T21:13:43.354Z,20.13
2023-04-08T21:16:10.448Z,21.13
2023-04-08T21:18:40.337Z,22.35
2023-04-08T21:21:09.474Z,19.13
2023-04-08T21:23:36.425Z,20.23
2023-04-08T21:26:03.701Z,19.75
2023-04-08T21:28:30.775Z,18.55
2023-04-08T21:31:11.077Z,19.15
2023-04-08T21:33:39.513Z,20.58
2023-04-08T21:36:09.670Z,20.67
2023-04-08T21:38:36.650Z,17.73
2023-04-08T21:41:03.661Z,21.30
2023-04-08T21:43:30.820Z,19.35
2023-04-08T21:45:57.813Z,18.75
2023-04-08T21:48:24.874Z,20.00
2023-04-08T21:50:51.832Z,20.50
2023-04-08T21:53:20.074Z,19.65
2023-04-08T21:55:46.991Z,19.70
2023-04-08T21:58:14.555Z,18.15
2023-04-08T22:00:41.578Z,18.17
2023-04-08T22:03:08.684Z,16.83
2023-04-08T22:05:35.913Z,17.40
2023-04-08T22:08:02.901Z,19.95
2023-04-08T22:10:29.993Z,21.00
2023-04-08T22:12:56.953Z,19.02
2023-04-08T22:15:23.856Z,19.42
2023-04-08T22:17:50.993Z,16.80
2023-04-08T22:20:18.001Z,19.60
2023-04-08T22:22:44.934Z,20.23
2023-04-08T22:25:11.956Z,20.45
2023-04-08T22:27:38.922Z,20.17
2023-04-08T22:30:06.583Z,17.30
2023-04-08T22:32:33.643Z,18.55
2023-04-08T22:35:00.653Z,17.60
2023-04-08T22:37:27.589Z,17.52
2023-04-08T22:39:54.500Z,20.83
2023-04-08T22:42:21.657Z,18.23
2023-04-08T22:44:48.566Z,18.25
2023-04-08T22:47:15.767Z,20.48
2023-04-08T22:49:42.962Z,17.40
2023-04-08T22:52:10.198Z,18.55
2023-04-08T22:54:37.640Z,19.27
2023-04-08T22:57:05.617Z,16.73
2023-04-08T22:59:32.548Z,20.15
2023-04-08T23:01:59.564Z,18.38
2023-04-08T23:04:26.560Z,16.48
2023-04-08T23:06:53.522Z,18.88
2023-04-08T23:09:23.010Z,16.05
2023-04-08T23:11:50.424Z,16.67
2023-04-08T23:14:17.356Z,22.65
2023-04-08T23:16:44.276Z,19.70
2023-04-08T23:19:11.620Z,19.23
2023-04-08T23:21:38.551Z,16.00
2023-04-08T23:24:06.666Z,16.30
2023-04-08T23:26:33.709Z,19.17
2023-04-08T23:29:00.707Z,16.63
2023-04-08T23:31:27.740Z,13.70
2023-04-08T23:33:54.680Z,17.45
2023-04-08T23:36:21.591Z,18.08
2023-04-08T23:38:49.826Z,17.05
2023-04-08T23:41:16.879Z,17.02
2023-04-08T23:43:43.826Z,19.50
2023-04-08T23:46:11.003Z,21.10
2023-04-08T23:48:37.989Z,16.95
2023-04-08T23:51:05.583Z,18.17
2023-04-08T23:53:32.481Z,16.88
2023-04-08T23:56:06.797Z,14.73
2023-04-08T23:58:34.132Z,16.75
